sensor_id;sensor_type;location;lat;lon;timestamp;P1;durP1;ratioP1;P2;durP2;ratioP2
36291;SDS011;22327;51.208;6.418;2022-10-16T00:00:18;4.05;;;2.20;;
36291;SDS011;22327;51.208;6.418;2022-10-16T00:02:43;4.63;;;2.25;;
36291;SDS011;22327;51.208;6.418;2022-10-16T00:05:09;5.20;;;2.28;;
36291;SDS011;22327;51.208;6.418;2022-10-16T00:07:35;4.30;;;1.95;;
36291;SDS011;22327;51.208;6.418;2022-10-16T00:10:00;3.38;;;2.15;;
36291;SDS011;22327;51.208;6.418;2022-10-16T00:12:26;2.42;;;2.03;;
36291;SDS011;22327;51.208;6.418;2022-10-16T00:14:51;3.38;;;2.10;;
36291;SDS011;22327;51.208;6.418;2022-10-16T00:17:17;3.15;;;1.83;;
36291;SDS011;22327;51.208;6.418;2022-10-16T00:19:42;3.20;;;2.08;;
36291;SDS011;22327;51.208;6.418;2022-10-16T00:22:08;5.70;;;2.00;;
36291;SDS011;22327;51.208;6.418;2022-10-16T00:24:33;3.65;;;2.05;;
36291;SDS011;22327;51.208;6.418;2022-10-16T00:26:59;3.38;;;1.80;;
36291;SDS011;22327;51.208;6.418;2022-10-16T00:29:24;2.80;;;1.88;;
36291;SDS011;22327;51.208;6.418;2022-10-16T00:31:50;3.92;;;1.80;;
36291;SDS011;22327;51.208;6.418;2022-10-16T00:34:15;2.03;;;1.67;;
36291;SDS011;22327;51.208;6.418;2022-10-16T00:36:41;4.20;;;1.70;;
36291;SDS011;22327;51.208;6.418;2022-10-16T00:39:06;3.47;;;1.83;;
36291;SDS011;22327;51.208;6.418;2022-10-16T00:41:32;4.75;;;2.05;;
36291;SDS011;22327;51.208;6.418;2022-10-16T00:43:59;2.60;;;1.58;;
36291;SDS011;22327;51.208;6.418;2022-10-16T00:49:02;1.80;;;1.70;;
36291;SDS011;22327;51.208;6.418;2022-10-16T00:51:38;2.33;;;1.45;;
36291;SDS011;22327;51.208;6.418;2022-10-16T00:54:11;4.05;;;1.90;;
36291;SDS011;22327;51.208;6.418;2022-10-16T00:56:46;2.50;;;1.45;;
36291;SDS011;22327;51.208;6.418;2022-10-16T00:59:14;3.17;;;1.40;;
36291;SDS011;22327;51.208;6.418;2022-10-16T01:01:51;1.55;;;1.42;;
36291;SDS011;22327;51.208;6.418;2022-10-16T01:04:17;2.60;;;1.40;;
36291;SDS011;22327;51.208;6.418;2022-10-16T01:09:21;2.00;;;1.38;;
36291;SDS011;22327;51.208;6.418;2022-10-16T01:12:09;3.50;;;1.50;;
36291;SDS011;22327;51.208;6.418;2022-10-16T01:17:12;3.20;;;1.33;;
36291;SDS011;22327;51.208;6.418;2022-10-16T01:22:18;2.45;;;1.30;;
36291;SDS011;22327;51.208;6.418;2022-10-16T01:24:47;2.47;;;1.42;;
36291;SDS011;22327;51.208;6.418;2022-10-16T01:27:15;3.03;;;1.50;;
36291;SDS011;22327;51.208;6.418;2022-10-16T01:29:56;2.33;;;1.38;;
36291;SDS011;22327;51.208;6.418;2022-10-16T01:35:27;1.80;;;1.40;;
36291;SDS011;22327;51.208;6.418;2022-10-16T01:37:59;1.77;;;1.15;;
36291;SDS011;22327;51.208;6.418;2022-10-16T01:40:34;1.92;;;1.40;;
36291;SDS011;22327;51.208;6.418;2022-10-16T01:43:05;2.50;;;1.40;;
36291;SDS011;22327;51.208;6.418;2022-10-16T01:45:35;2.13;;;1.38;;
36291;SDS011;22327;51.208;6.418;2022-10-16T01:48:02;2.25;;;1.17;;
36291;SDS011;22327;51.208;6.418;2022-10-16T01:50:33;2.13;;;1.10;;
36291;SDS011;22327;51.208;6.418;2022-10-16T01:53:02;2.17;;;1.08;;
36291;SDS011;22327;51.208;6.418;2022-10-16T01:55:31;1.88;;;1.17;;
36291;SDS011;22327;51.208;6.418;2022-10-16T01:58:00;2.05;;;0.90;;
36291;SDS011;22327;51.208;6.418;2022-10-16T02:00:29;1.52;;;0.95;;
36291;SDS011;22327;51.208;6.418;2022-10-16T02:02:55;2.83;;;0.90;;
36291;SDS011;22327;51.208;6.418;2022-10-16T02:05:30;0.80;;;0.80;;
36291;SDS011;22327;51.208;6.418;2022-10-16T02:08:01;1.75;;;0.90;;
36291;SDS011;22327;51.208;6.418;2022-10-16T02:10:27;1.65;;;0.88;;
36291;SDS011;22327;51.208;6.418;2022-10-16T02:13:00;2.25;;;0.82;;
36291;SDS011;22327;51.208;6.418;2022-10-16T02:15:38;2.73;;;1.53;;
36291;SDS011;22327;51.208;6.418;2022-10-16T02:18:04;2.00;;;0.60;;
36291;SDS011;22327;51.208;6.418;2022-10-16T02:20:32;2.42;;;0.90;;
36291;SDS011;22327;51.208;6.418;2022-10-16T02:23:05;1.52;;;0.90;;
36291;SDS011;22327;51.208;6.418;2022-10-16T02:25:35;1.20;;;0.65;;
36291;SDS011;22327;51.208;6.418;2022-10-16T02:33:15;2.70;;;0.50;;
36291;SDS011;22327;51.208;6.418;2022-10-16T02:35:44;1.33;;;0.60;;
36291;SDS011;22327;51.208;6.418;2022-10-16T02:38:12;1.85;;;0.73;;
36291;SDS011;22327;51.208;6.418;2022-10-16T02:40:40;0.82;;;0.50;;
36291;SDS011;22327;51.208;6.418;2022-10-16T02:43:06;2.17;;;0.70;;
36291;SDS011;22327;51.208;6.418;2022-10-16T02:45:32;0.88;;;0.60;;
36291;SDS011;22327;51.208;6.418;2022-10-16T02:47:57;3.67;;;0.63;;
36291;SDS011;22327;51.208;6.418;2022-10-16T02:50:23;1.40;;;0.85;;
36291;SDS011;22327;51.208;6.418;2022-10-16T02:52:50;1.08;;;0.40;;
36291;SDS011;22327;51.208;6.418;2022-10-16T02:55:15;3.53;;;0.70;;
36291;SDS011;22327;51.208;6.418;2022-10-16T02:57:41;0.60;;;0.50;;
36291;SDS011;22327;51.208;6.418;2022-10-16T03:00:10;2.35;;;0.82;;
36291;SDS011;22327;51.208;6.418;2022-10-16T03:02:38;1.75;;;0.50;;
36291;SDS011;22327;51.208;6.418;2022-10-16T03:05:04;1.50;;;0.60;;
36291;SDS011;22327;51.208;6.418;2022-10-16T03:07:30;0.80;;;0.63;;
36291;SDS011;22327;51.208;6.418;2022-10-16T03:09:55;1.20;;;0.50;;
36291;SDS011;22327;51.208;6.418;2022-10-16T03:12:21;0.93;;;0.60;;
36291;SDS011;22327;51.208;6.418;2022-10-16T03:14:47;1.48;;;0.70;;
36291;SDS011;22327;51.208;6.418;2022-10-16T03:17:12;1.40;;;0.75;;
36291;SDS011;22327;51.208;6.418;2022-10-16T03:19:38;0.75;;;0.60;;
36291;SDS011;22327;51.208;6.418;2022-10-16T03:22:04;2.78;;;0.70;;
36291;SDS011;22327;51.208;6.418;2022-10-16T03:24:29;1.48;;;0.60;;
36291;SDS011;22327;51.208;6.418;2022-10-16T03:26:55;0.55;;;0.55;;
36291;SDS011;22327;51.208;6.418;2022-10-16T03:29:20;1.50;;;0.50;;
36291;SDS011;22327;51.208;6.418;2022-10-16T03:31:46;1.20;;;0.60;;
36291;SDS011;22327;51.208;6.418;2022-10-16T03:34:13;2.63;;;1.35;;
36291;SDS011;22327;51.208;6.418;2022-10-16T03:36:38;1.00;;;0.70;;
36291;SDS011;22327;51.208;6.418;2022-10-16T03:39:04;0.68;;;0.52;;
36291;SDS011;22327;51.208;6.418;2022-10-16T03:41:30;4.35;;;1.40;;
36291;SDS011;22327;51.208;6.418;2022-10-16T03:43:55;1.92;;;0.60;;
36291;SDS011;22327;51.208;6.418;2022-10-16T03:46:21;0.80;;;0.73;;
36291;SDS011;22327;51.208;6.418;2022-10-16T03:48:46;2.97;;;0.55;;
36291;SDS011;22327;51.208;6.418;2022-10-16T03:51:12;1.58;;;0.65;;
36291;SDS011;22327;51.208;6.418;2022-10-16T03:53:37;0.80;;;0.70;;
36291;SDS011;22327;51.208;6.418;2022-10-16T03:56:03;1.40;;;0.50;;
36291;SDS011;22327;51.208;6.418;2022-10-16T03:58:29;1.48;;;0.80;;
36291;SDS011;22327;51.208;6.418;2022-10-16T04:00:54;4.13;;;0.70;;
36291;SDS011;22327;51.208;6.418;2022-10-16T04:03:20;2.60;;;0.60;;
36291;SDS011;22327;51.208;6.418;2022-10-16T04:05:46;1.08;;;0.70;;
36291;SDS011;22327;51.208;6.418;2022-10-16T04:08:11;1.45;;;0.65;;
36291;SDS011;22327;51.208;6.418;2022-10-16T04:10:37;3.33;;;0.95;;
36291;SDS011;22327;51.208;6.418;2022-10-16T04:13:02;0.93;;;0.80;;
36291;SDS011;22327;51.208;6.418;2022-10-16T04:15:28;0.60;;;0.60;;
36291;SDS011;22327;51.208;6.418;2022-10-16T04:17:53;1.52;;;0.70;;
36291;SDS011;22327;51.208;6.418;2022-10-16T04:20:19;1.95;;;0.88;;
36291;SDS011;22327;51.208;6.418;2022-10-16T04:22:45;1.02;;;0.70;;
36291;SDS011;22327;51.208;6.418;2022-10-16T04:25:10;1.33;;;1.15;;
36291;SDS011;22327;51.208;6.418;2022-10-16T04:27:36;1.65;;;0.80;;
36291;SDS011;22327;51.208;6.418;2022-10-16T04:30:02;0.65;;;0.65;;
36291;SDS011;22327;51.208;6.418;2022-10-16T04:32:29;2.08;;;0.63;;
36291;SDS011;22327;51.208;6.418;2022-10-16T04:34:54;3.38;;;0.85;;
36291;SDS011;22327;51.208;6.418;2022-10-16T04:37:24;1.17;;;0.70;;
36291;SDS011;22327;51.208;6.418;2022-10-16T04:39:50;1.02;;;0.90;;
36291;SDS011;22327;51.208;6.418;2022-10-16T04:42:16;1.10;;;1.00;;
36291;SDS011;22327;51.208;6.418;2022-10-16T04:44:41;1.15;;;0.90;;
36291;SDS011;22327;51.208;6.418;2022-10-16T04:47:07;0.80;;;0.80;;
36291;SDS011;22327;51.208;6.418;2022-10-16T04:49:33;3.75;;;1.20;;
36291;SDS011;22327;51.208;6.418;2022-10-16T04:51:58;1.27;;;0.98;;
36291;SDS011;22327;51.208;6.418;2022-10-16T04:54:24;1.52;;;1.08;;
36291;SDS011;22327;51.208;6.418;2022-10-16T04:56:49;1.90;;;0.90;;
36291;SDS011;22327;51.208;6.418;2022-10-16T04:59:17;1.20;;;1.00;;
36291;SDS011;22327;51.208;6.418;2022-10-16T05:01:43;1.75;;;1.10;;
36291;SDS011;22327;51.208;6.418;2022-10-16T05:04:09;1.25;;;0.95;;
36291;SDS011;22327;51.208;6.418;2022-10-16T05:06:35;1.10;;;0.93;;
36291;SDS011;22327;51.208;6.418;2022-10-16T05:09:03;1.55;;;1.00;;
36291;SDS011;22327;51.208;6.418;2022-10-16T05:11:29;1.00;;;1.00;;
36291;SDS011;22327;51.208;6.418;2022-10-16T05:13:55;1.58;;;1.10;;
36291;SDS011;22327;51.208;6.418;2022-10-16T05:16:20;1.13;;;0.98;;
36291;SDS011;22327;51.208;6.418;2022-10-16T05:18:46;1.23;;;1.08;;
36291;SDS011;22327;51.208;6.418;2022-10-16T05:21:11;1.65;;;1.00;;
36291;SDS011;22327;51.208;6.418;2022-10-16T05:23:37;1.75;;;1.20;;
36291;SDS011;22327;51.208;6.418;2022-10-16T05:26:02;1.20;;;1.10;;
36291;SDS011;22327;51.208;6.418;2022-10-16T05:28:28;1.52;;;1.15;;
36291;SDS011;22327;51.208;6.418;2022-10-16T05:30:55;1.73;;;1.30;;
36291;SDS011;22327;51.208;6.418;2022-10-16T05:33:21;2.10;;;1.90;;
36291;SDS011;22327;51.208;6.418;2022-10-16T05:35:48;2.55;;;1.52;;
36291;SDS011;22327;51.208;6.418;2022-10-16T05:38:14;2.78;;;1.50;;
36291;SDS011;22327;51.208;6.418;2022-10-16T05:40:40;1.60;;;1.50;;
36291;SDS011;22327;51.208;6.418;2022-10-16T05:43:06;2.97;;;1.80;;
36291;SDS011;22327;51.208;6.418;2022-10-16T05:45:32;2.50;;;1.70;;
36291;SDS011;22327;51.208;6.418;2022-10-16T05:47:58;2.28;;;1.77;;
36291;SDS011;22327;51.208;6.418;2022-10-16T05:50:24;2.70;;;1.90;;
36291;SDS011;22327;51.208;6.418;2022-10-16T05:52:50;2.00;;;1.80;;
36291;SDS011;22327;51.208;6.418;2022-10-16T05:55:16;3.03;;;1.90;;
36291;SDS011;22327;51.208;6.418;2022-10-16T05:57:41;2.80;;;2.03;;
36291;SDS011;22327;51.208;6.418;2022-10-16T06:00:07;3.47;;;2.25;;
36291;SDS011;22327;51.208;6.418;2022-10-16T06:02:33;4.22;;;2.05;;
36291;SDS011;22327;51.208;6.418;2022-10-16T06:04:58;3.20;;;2.28;;
36291;SDS011;22327;51.208;6.418;2022-10-16T06:07:24;3.50;;;2.40;;
36291;SDS011;22327;51.208;6.418;2022-10-16T06:09:50;3.25;;;2.42;;
36291;SDS011;22327;51.208;6.418;2022-10-16T06:12:16;2.70;;;2.47;;
36291;SDS011;22327;51.208;6.418;2022-10-16T06:14:42;5.22;;;2.20;;
36291;SDS011;22327;51.208;6.418;2022-10-16T06:17:07;3.60;;;2.35;;
36291;SDS011;22327;51.208;6.418;2022-10-16T06:19:33;3.25;;;2.83;;
36291;SDS011;22327;51.208;6.418;2022-10-16T06:21:58;3.35;;;2.30;;
36291;SDS011;22327;51.208;6.418;2022-10-16T06:24:25;2.83;;;2.40;;
36291;SDS011;22327;51.208;6.418;2022-10-16T06:26:50;5.22;;;2.40;;
36291;SDS011;22327;51.208;6.418;2022-10-16T06:29:16;2.65;;;2.45;;
36291;SDS011;22327;51.208;6.418;2022-10-16T06:31:42;2.88;;;2.50;;
36291;SDS011;22327;51.208;6.418;2022-10-16T06:34:09;3.15;;;2.63;;
36291;SDS011;22327;51.208;6.418;2022-10-16T06:36:36;2.58;;;2.00;;
36291;SDS011;22327;51.208;6.418;2022-10-16T06:39:02;2.17;;;1.98;;
36291;SDS011;22327;51.208;6.418;2022-10-16T06:41:28;4.75;;;2.45;;
36291;SDS011;22327;51.208;6.418;2022-10-16T06:43:54;3.80;;;1.83;;
36291;SDS011;22327;51.208;6.418;2022-10-16T06:46:21;3.30;;;2.00;;
36291;SDS011;22327;51.208;6.418;2022-10-16T06:48:48;3.55;;;2.30;;
36291;SDS011;22327;51.208;6.418;2022-10-16T06:51:15;4.55;;;2.45;;
36291;SDS011;22327;51.208;6.418;2022-10-16T06:53:43;2.63;;;2.08;;
36291;SDS011;22327;51.208;6.418;2022-10-16T06:56:14;2.25;;;1.90;;
36291;SDS011;22327;51.208;6.418;2022-10-16T06:58:41;6.38;;;2.80;;
36291;SDS011;22327;51.208;6.418;2022-10-16T07:01:07;3.40;;;2.35;;
36291;SDS011;22327;51.208;6.418;2022-10-16T07:03:35;4.78;;;2.30;;
36291;SDS011;22327;51.208;6.418;2022-10-16T07:06:03;3.90;;;2.40;;
36291;SDS011;22327;51.208;6.418;2022-10-16T07:08:31;4.10;;;2.50;;
36291;SDS011;22327;51.208;6.418;2022-10-16T07:10:58;4.32;;;2.42;;
36291;SDS011;22327;51.208;6.418;2022-10-16T07:13:27;3.90;;;2.17;;
36291;SDS011;22327;51.208;6.418;2022-10-16T07:15:53;3.08;;;2.10;;
36291;SDS011;22327;51.208;6.418;2022-10-16T07:18:18;2.42;;;2.22;;
36291;SDS011;22327;51.208;6.418;2022-10-16T07:20:44;3.55;;;2.38;;
36291;SDS011;22327;51.208;6.418;2022-10-16T07:23:09;4.10;;;2.40;;
36291;SDS011;22327;51.208;6.418;2022-10-16T07:25:35;4.30;;;2.60;;
36291;SDS011;22327;51.208;6.418;2022-10-16T07:28:00;4.00;;;2.65;;
36291;SDS011;22327;51.208;6.418;2022-10-16T07:30:26;3.63;;;2.47;;
36291;SDS011;22327;51.208;6.418;2022-10-16T07:32:51;3.78;;;2.25;;
36291;SDS011;22327;51.208;6.418;2022-10-16T07:35:17;2.50;;;2.30;;
36291;SDS011;22327;51.208;6.418;2022-10-16T07:37:46;3.20;;;2.10;;
36291;SDS011;22327;51.208;6.418;2022-10-16T07:40:12;2.00;;;1.80;;
36291;SDS011;22327;51.208;6.418;2022-10-16T07:42:37;2.80;;;1.90;;
36291;SDS011;22327;51.208;6.418;2022-10-16T07:45:03;2.00;;;1.80;;
36291;SDS011;22327;51.208;6.418;2022-10-16T07:47:29;4.25;;;2.38;;
36291;SDS011;22327;51.208;6.418;2022-10-16T07:49:55;4.38;;;1.80;;
36291;SDS011;22327;51.208;6.418;2022-10-16T07:52:20;1.70;;;1.52;;
36291;SDS011;22327;51.208;6.418;2022-10-16T07:54:46;1.90;;;1.80;;
36291;SDS011;22327;51.208;6.418;2022-10-16T07:57:11;9.07;;;2.30;;
36291;SDS011;22327;51.208;6.418;2022-10-16T07:59:37;3.60;;;2.30;;
36291;SDS011;22327;51.208;6.418;2022-10-16T08:02:03;2.13;;;1.63;;
36291;SDS011;22327;51.208;6.418;2022-10-16T08:04:28;3.60;;;2.10;;
36291;SDS011;22327;51.208;6.418;2022-10-16T08:06:54;2.53;;;1.40;;
36291;SDS011;22327;51.208;6.418;2022-10-16T08:09:19;2.47;;;1.35;;
36291;SDS011;22327;51.208;6.418;2022-10-16T08:11:45;3.33;;;1.65;;
36291;SDS011;22327;51.208;6.418;2022-10-16T08:14:10;3.75;;;2.03;;
36291;SDS011;22327;51.208;6.418;2022-10-16T08:16:36;1.75;;;1.05;;
36291;SDS011;22327;51.208;6.418;2022-10-16T08:19:02;1.50;;;1.30;;
36291;SDS011;22327;51.208;6.418;2022-10-16T08:21:29;2.78;;;1.48;;
36291;SDS011;22327;51.208;6.418;2022-10-16T08:23:55;3.17;;;1.17;;
36291;SDS011;22327;51.208;6.418;2022-10-16T08:26:20;2.92;;;1.00;;
36291;SDS011;22327;51.208;6.418;2022-10-16T08:28:49;4.60;;;1.02;;
36291;SDS011;22327;51.208;6.418;2022-10-16T08:31:15;3.15;;;1.10;;
36291;SDS011;22327;51.208;6.418;2022-10-16T08:33:42;2.45;;;1.00;;
36291;SDS011;22327;51.208;6.418;2022-10-16T08:36:11;2.75;;;1.00;;
36291;SDS011;22327;51.208;6.418;2022-10-16T08:38:38;1.17;;;0.80;;
36291;SDS011;22327;51.208;6.418;2022-10-16T08:44:02;3.03;;;1.10;;
36291;SDS011;22327;51.208;6.418;2022-10-16T08:46:33;0.70;;;0.70;;
36291;SDS011;22327;51.208;6.418;2022-10-16T08:49:11;1.10;;;0.70;;
36291;SDS011;22327;51.208;6.418;2022-10-16T08:51:38;2.60;;;1.38;;
36291;SDS011;22327;51.208;6.418;2022-10-16T08:54:15;1.67;;;0.73;;
36291;SDS011;22327;51.208;6.418;2022-10-16T08:57:13;1.38;;;0.70;;
36291;SDS011;22327;51.208;6.418;2022-10-16T08:59:42;0.82;;;0.60;;
36291;SDS011;22327;51.208;6.418;2022-10-16T09:05:17;1.85;;;0.70;;
36291;SDS011;22327;51.208;6.418;2022-10-16T09:08:16;1.65;;;0.70;;
36291;SDS011;22327;51.208;6.418;2022-10-16T09:11:09;1.70;;;0.50;;
36291;SDS011;22327;51.208;6.418;2022-10-16T09:14:03;0.63;;;0.63;;
36291;SDS011;22327;51.208;6.418;2022-10-16T09:16:42;2.63;;;0.60;;
36291;SDS011;22327;51.208;6.418;2022-10-16T09:19:23;2.33;;;0.57;;
36291;SDS011;22327;51.208;6.418;2022-10-16T09:21:55;1.70;;;0.68;;
36291;SDS011;22327;51.208;6.418;2022-10-16T09:24:21;1.70;;;0.52;;
36291;SDS011;22327;51.208;6.418;2022-10-16T09:26:50;1.48;;;0.50;;
36291;SDS011;22327;51.208;6.418;2022-10-16T09:29:16;1.33;;;0.70;;
36291;SDS011;22327;51.208;6.418;2022-10-16T09:31:45;1.35;;;0.50;;
36291;SDS011;22327;51.208;6.418;2022-10-16T09:34:16;2.25;;;0.60;;
36291;SDS011;22327;51.208;6.418;2022-10-16T09:36:57;1.65;;;1.00;;
36291;SDS011;22327;51.208;6.418;2022-10-16T09:39:24;2.17;;;0.60;;
36291;SDS011;22327;51.208;6.418;2022-10-16T09:41:50;2.83;;;1.17;;
36291;SDS011;22327;51.208;6.418;2022-10-16T09:44:21;1.58;;;0.55;;
36291;SDS011;22327;51.208;6.418;2022-10-16T09:47:12;2.42;;;0.70;;
36291;SDS011;22327;51.208;6.418;2022-10-16T09:52:22;1.52;;;0.55;;
36291;SDS011;22327;51.208;6.418;2022-10-16T09:54:59;3.75;;;0.60;;
36291;SDS011;22327;51.208;6.418;2022-10-16T09:57:48;5.05;;;1.15;;
36291;SDS011;22327;51.208;6.418;2022-10-16T10:00:18;3.10;;;0.60;;
36291;SDS011;22327;51.208;6.418;2022-10-16T10:02:44;1.27;;;0.73;;
36291;SDS011;22327;51.208;6.418;2022-10-16T10:05:18;1.08;;;0.40;;
36291;SDS011;22327;51.208;6.418;2022-10-16T10:07:52;3.67;;;0.80;;
36291;SDS011;22327;51.208;6.418;2022-10-16T10:10:31;2.78;;;1.27;;
36291;SDS011;22327;51.208;6.418;2022-10-16T10:13:01;1.70;;;0.77;;
36291;SDS011;22327;51.208;6.418;2022-10-16T10:15:27;2.63;;;0.63;;
36291;SDS011;22327;51.208;6.418;2022-10-16T10:17:59;3.03;;;1.10;;
36291;SDS011;22327;51.208;6.418;2022-10-16T10:20:29;1.13;;;0.43;;
36291;SDS011;22327;51.208;6.418;2022-10-16T10:23:00;1.67;;;0.60;;
36291;SDS011;22327;51.208;6.418;2022-10-16T10:30:49;2.53;;;0.60;;
36291;SDS011;22327;51.208;6.418;2022-10-16T10:42:04;2.13;;;0.70;;
36291;SDS011;22327;51.208;6.418;2022-10-16T10:50:58;1.35;;;0.40;;
36291;SDS011;22327;51.208;6.418;2022-10-16T10:53:46;1.55;;;0.50;;
36291;SDS011;22327;51.208;6.418;2022-10-16T11:02:10;2.55;;;0.65;;
36291;SDS011;22327;51.208;6.418;2022-10-16T11:07:34;2.85;;;0.80;;
36291;SDS011;22327;51.208;6.418;2022-10-16T11:10:27;1.23;;;0.55;;
36291;SDS011;22327;51.208;6.418;2022-10-16T11:12:58;1.17;;;0.55;;
36291;SDS011;22327;51.208;6.418;2022-10-16T11:15:36;1.70;;;0.50;;
36291;SDS011;22327;51.208;6.418;2022-10-16T11:18:07;1.77;;;0.60;;
36291;SDS011;22327;51.208;6.418;2022-10-16T11:20:45;2.50;;;0.70;;
36291;SDS011;22327;51.208;6.418;2022-10-16T11:23:21;2.33;;;0.50;;
36291;SDS011;22327;51.208;6.418;2022-10-16T11:26:05;3.30;;;0.57;;
36291;SDS011;22327;51.208;6.418;2022-10-16T11:28:45;3.58;;;0.73;;
36291;SDS011;22327;51.208;6.418;2022-10-16T11:31:21;2.10;;;0.60;;
36291;SDS011;22327;51.208;6.418;2022-10-16T11:34:05;4.65;;;0.90;;
36291;SDS011;22327;51.208;6.418;2022-10-16T11:37:17;2.70;;;0.50;;
36291;SDS011;22327;51.208;6.418;2022-10-16T11:40:11;3.03;;;0.50;;
36291;SDS011;22327;51.208;6.418;2022-10-16T11:42:50;1.08;;;0.40;;
36291;SDS011;22327;51.208;6.418;2022-10-16T11:45:36;2.70;;;0.40;;
36291;SDS011;22327;51.208;6.418;2022-10-16T11:48:18;2.72;;;0.68;;
36291;SDS011;22327;51.208;6.418;2022-10-16T11:50:54;2.63;;;0.50;;
36291;SDS011;22327;51.208;6.418;2022-10-16T11:56:23;3.17;;;0.60;;
36291;SDS011;22327;51.208;6.418;2022-10-16T12:07:11;1.27;;;0.55;;
36291;SDS011;22327;51.208;6.418;2022-10-16T12:09:41;2.80;;;0.73;;
36291;SDS011;22327;51.208;6.418;2022-10-16T12:12:23;1.23;;;0.40;;
36291;SDS011;22327;51.208;6.418;2022-10-16T12:14:59;5.97;;;0.60;;
36291;SDS011;22327;51.208;6.418;2022-10-16T12:17:34;1.52;;;0.70;;
36291;SDS011;22327;51.208;6.418;2022-10-16T12:22:36;2.63;;;1.42;;
36291;SDS011;22327;51.208;6.418;2022-10-16T12:25:17;2.10;;;1.42;;
36291;SDS011;22327;51.208;6.418;2022-10-16T12:28:05;3.38;;;0.85;;
36291;SDS011;22327;51.208;6.418;2022-10-16T12:30:56;1.10;;;0.50;;
36291;SDS011;22327;51.208;6.418;2022-10-16T12:33:28;1.02;;;0.57;;
36291;SDS011;22327;51.208;6.418;2022-10-16T12:35:56;0.63;;;0.30;;
36291;SDS011;22327;51.208;6.418;2022-10-16T12:38:28;0.95;;;0.57;;
36291;SDS011;22327;51.208;6.418;2022-10-16T12:41:04;2.42;;;0.88;;
36291;SDS011;22327;51.208;6.418;2022-10-16T12:43:37;1.70;;;0.30;;
36291;SDS011;22327;51.208;6.418;2022-10-16T12:48:33;1.83;;;0.57;;
36291;SDS011;22327;51.208;6.418;2022-10-16T12:51:12;1.80;;;0.50;;
36291;SDS011;22327;51.208;6.418;2022-10-16T12:54:37;2.42;;;1.25;;
36291;SDS011;22327;51.208;6.418;2022-10-16T12:59:35;2.40;;;0.50;;
36291;SDS011;22327;51.208;6.418;2022-10-16T13:08:02;1.23;;;0.63;;
36291;SDS011;22327;51.208;6.418;2022-10-16T13:16:17;1.88;;;0.95;;
36291;SDS011;22327;51.208;6.418;2022-10-16T13:18:55;1.02;;;0.50;;
36291;SDS011;22327;51.208;6.418;2022-10-16T13:21:49;3.03;;;1.10;;
36291;SDS011;22327;51.208;6.418;2022-10-16T13:24:40;2.30;;;1.23;;
36291;SDS011;22327;51.208;6.418;2022-10-16T13:30:15;1.50;;;0.40;;
36291;SDS011;22327;51.208;6.418;2022-10-16T13:32:44;1.23;;;0.60;;
36291;SDS011;22327;51.208;6.418;2022-10-16T13:35:22;0.55;;;0.50;;
36291;SDS011;22327;51.208;6.418;2022-10-16T13:37:50;3.47;;;1.60;;
36291;SDS011;22327;51.208;6.418;2022-10-16T13:40:20;2.58;;;0.75;;
36291;SDS011;22327;51.208;6.418;2022-10-16T13:42:47;1.73;;;0.52;;
36291;SDS011;22327;51.208;6.418;2022-10-16T13:45:20;0.98;;;0.50;;
36291;SDS011;22327;51.208;6.418;2022-10-16T13:47:48;0.82;;;0.60;;
36291;SDS011;22327;51.208;6.418;2022-10-16T13:50:16;2.00;;;0.60;;
36291;SDS011;22327;51.208;6.418;2022-10-16T13:52:42;3.33;;;0.80;;
36291;SDS011;22327;51.208;6.418;2022-10-16T13:55:12;2.47;;;0.77;;
36291;SDS011;22327;51.208;6.418;2022-10-16T13:57:39;0.88;;;0.35;;
36291;SDS011;22327;51.208;6.418;2022-10-16T14:00:27;3.10;;;0.70;;
36291;SDS011;22327;51.208;6.418;2022-10-16T14:03:15;0.75;;;0.43;;
36291;SDS011;22327;51.208;6.418;2022-10-16T14:05:49;2.63;;;0.65;;
36291;SDS011;22327;51.208;6.418;2022-10-16T14:08:17;2.10;;;0.70;;
36291;SDS011;22327;51.208;6.418;2022-10-16T14:10:46;2.35;;;0.60;;
36291;SDS011;22327;51.208;6.418;2022-10-16T14:13:16;2.13;;;0.60;;
36291;SDS011;22327;51.208;6.418;2022-10-16T14:15:48;0.47;;;0.35;;
36291;SDS011;22327;51.208;6.418;2022-10-16T14:18:20;1.25;;;0.50;;
36291;SDS011;22327;51.208;6.418;2022-10-16T14:20:48;1.38;;;0.43;;
36291;SDS011;22327;51.208;6.418;2022-10-16T14:23:21;2.65;;;0.60;;
36291;SDS011;22327;51.208;6.418;2022-10-16T14:26:05;3.35;;;0.70;;
36291;SDS011;22327;51.208;6.418;2022-10-16T14:28:38;3.67;;;0.60;;
36291;SDS011;22327;51.208;6.418;2022-10-16T14:36:16;8.27;;;6.07;;
36291;SDS011;22327;51.208;6.418;2022-10-16T14:41:30;4.90;;;4.40;;
36291;SDS011;22327;51.208;6.418;2022-10-16T14:43:58;3.78;;;2.85;;
36291;SDS011;22327;51.208;6.418;2022-10-16T14:46:37;5.30;;;2.22;;
36291;SDS011;22327;51.208;6.418;2022-10-16T14:51:50;2.88;;;0.80;;
36291;SDS011;22327;51.208;6.418;2022-10-16T14:54:17;3.90;;;1.10;;
36291;SDS011;22327;51.208;6.418;2022-10-16T14:59:14;2.13;;;0.85;;
36291;SDS011;22327;51.208;6.418;2022-10-16T15:01:54;1.80;;;0.60;;
36291;SDS011;22327;51.208;6.418;2022-10-16T15:04:20;1.00;;;0.80;;
36291;SDS011;22327;51.208;6.418;2022-10-16T15:06:46;3.13;;;0.60;;
36291;SDS011;22327;51.208;6.418;2022-10-16T15:09:11;2.42;;;0.60;;
36291;SDS011;22327;51.208;6.418;2022-10-16T15:11:37;1.88;;;0.50;;
36291;SDS011;22327;51.208;6.418;2022-10-16T15:14:03;0.52;;;0.45;;
36291;SDS011;22327;51.208;6.418;2022-10-16T15:16:29;1.38;;;0.60;;
36291;SDS011;22327;51.208;6.418;2022-10-16T15:18:56;1.67;;;0.63;;
36291;SDS011;22327;51.208;6.418;2022-10-16T15:23:49;1.88;;;0.60;;
36291;SDS011;22327;51.208;6.418;2022-10-16T15:26:18;2.85;;;0.70;;
36291;SDS011;22327;51.208;6.418;2022-10-16T15:28:43;3.30;;;0.60;;
36291;SDS011;22327;51.208;6.418;2022-10-16T15:31:09;3.15;;;0.60;;
36291;SDS011;22327;51.208;6.418;2022-10-16T15:33:34;2.10;;;0.50;;
36291;SDS011;22327;51.208;6.418;2022-10-16T15:36:00;1.33;;;0.50;;
36291;SDS011;22327;51.208;6.418;2022-10-16T15:38:30;3.42;;;0.82;;
36291;SDS011;22327;51.208;6.418;2022-10-16T15:40:56;2.20;;;0.90;;
36291;SDS011;22327;51.208;6.418;2022-10-16T15:43:22;1.00;;;0.60;;
36291;SDS011;22327;51.208;6.418;2022-10-16T15:45:54;1.73;;;0.60;;
36291;SDS011;22327;51.208;6.418;2022-10-16T15:48:25;2.28;;;0.68;;
36291;SDS011;22327;51.208;6.418;2022-10-16T15:50:51;2.45;;;0.82;;
36291;SDS011;22327;51.208;6.418;2022-10-16T15:53:16;0.95;;;0.68;;
36291;SDS011;22327;51.208;6.418;2022-10-16T15:55:42;1.73;;;1.02;;
36291;SDS011;22327;51.208;6.418;2022-10-16T15:58:07;3.97;;;1.13;;
36291;SDS011;22327;51.208;6.418;2022-10-16T16:00:33;4.28;;;1.48;;
36291;SDS011;22327;51.208;6.418;2022-10-16T16:02:58;2.05;;;1.40;;
36291;SDS011;22327;51.208;6.418;2022-10-16T16:05:24;2.75;;;1.10;;
36291;SDS011;22327;51.208;6.418;2022-10-16T16:07:49;2.03;;;1.20;;
36291;SDS011;22327;51.208;6.418;2022-10-16T16:10:16;2.88;;;1.50;;
36291;SDS011;22327;51.208;6.418;2022-10-16T16:12:42;2.58;;;1.80;;
36291;SDS011;22327;51.208;6.418;2022-10-16T16:15:08;1.63;;;1.10;;
36291;SDS011;22327;51.208;6.418;2022-10-16T16:17:35;2.10;;;1.30;;
36291;SDS011;22327;51.208;6.418;2022-10-16T16:20:01;2.03;;;1.20;;
36291;SDS011;22327;51.208;6.418;2022-10-16T16:22:28;2.42;;;1.17;;
36291;SDS011;22327;51.208;6.418;2022-10-16T16:24:54;2.42;;;1.10;;
36291;SDS011;22327;51.208;6.418;2022-10-16T16:27:19;2.70;;;1.27;;
36291;SDS011;22327;51.208;6.418;2022-10-16T16:32:13;2.05;;;1.30;;
36291;SDS011;22327;51.208;6.418;2022-10-16T16:34:38;0.73;;;0.70;;
36291;SDS011;22327;51.208;6.418;2022-10-16T16:37:04;2.55;;;1.20;;
36291;SDS011;22327;51.208;6.418;2022-10-16T16:39:29;3.33;;;1.02;;
36291;SDS011;22327;51.208;6.418;2022-10-16T16:41:56;1.80;;;1.30;;
36291;SDS011;22327;51.208;6.418;2022-10-16T16:44:23;4.10;;;1.48;;
36291;SDS011;22327;51.208;6.418;2022-10-16T16:46:49;2.80;;;1.20;;
36291;SDS011;22327;51.208;6.418;2022-10-16T16:49:14;2.30;;;1.08;;